sensor_id;sensor_type;location;lat;lon;timestamp;P1;durP1;ratioP1;P2;durP2;ratioP2
11344;SDS011;5727;42.600;23.028;2023-09-19T00:00:06;14.10;;;11.50;;
11344;SDS011;5727;42.600;23.028;2023-09-19T00:02:38;12.63;;;11.23;;
11344;SDS011;5727;42.600;23.028;2023-09-19T00:05:05;12.47;;;11.13;;
11344;SDS011;5727;42.600;23.028;2023-09-19T00:07:34;16.40;;;10.77;;
11344;SDS011;5727;42.600;23.028;2023-09-19T00:10:02;14.77;;;10.87;;
11344;SDS011;5727;42.600;23.028;2023-09-19T00:12:30;17.87;;;10.87;;
11344;SDS011;5727;42.600;23.028;2023-09-19T00:14:59;16.50;;;11.00;;
11344;SDS011;5727;42.600;23.028;2023-09-19T00:17:26;12.60;;;10.03;;
11344;SDS011;5727;42.600;23.028;2023-09-19T00:19:55;11.83;;;9.80;;
11344;SDS011;5727;42.600;23.028;2023-09-19T00:22:22;13.57;;;10.03;;
11344;SDS011;5727;42.600;23.028;2023-09-19T00:24:51;12.03;;;10.17;;
11344;SDS011;5727;42.600;23.028;2023-09-19T00:27:19;15.57;;;10.33;;
11344;SDS011;5727;42.600;23.028;2023-09-19T00:29:45;12.70;;;9.23;;
11344;SDS011;5727;42.600;23.028;2023-09-19T00:32:14;11.53;;;9.17;;
11344;SDS011;5727;42.600;23.028;2023-09-19T00:34:40;12.07;;;10.30;;
11344;SDS011;5727;42.600;23.028;2023-09-19T00:37:08;13.43;;;9.17;;
11344;SDS011;5727;42.600;23.028;2023-09-19T00:39:36;11.37;;;9.83;;
11344;SDS011;5727;42.600;23.028;2023-09-19T00:42:03;14.13;;;10.17;;
11344;SDS011;5727;42.600;23.028;2023-09-19T00:44:30;13.17;;;9.77;;
11344;SDS011;5727;42.600;23.028;2023-09-19T00:46:59;10.40;;;9.30;;
11344;SDS011;5727;42.600;23.028;2023-09-19T00:49:28;11.20;;;9.63;;
11344;SDS011;5727;42.600;23.028;2023-09-19T00:51:55;11.00;;;8.30;;
11344;SDS011;5727;42.600;23.028;2023-09-19T00:54:22;11.60;;;9.13;;
11344;SDS011;5727;42.600;23.028;2023-09-19T00:56:50;12.80;;;9.90;;
11344;SDS011;5727;42.600;23.028;2023-09-19T00:59:19;15.80;;;10.93;;
11344;SDS011;5727;42.600;23.028;2023-09-19T01:01:47;10.33;;;9.23;;
11344;SDS011;5727;42.600;23.028;2023-09-19T01:04:18;10.20;;;9.13;;
11344;SDS011;5727;42.600;23.028;2023-09-19T01:06:46;10.07;;;8.70;;
11344;SDS011;5727;42.600;23.028;2023-09-19T01:09:18;11.50;;;9.70;;
11344;SDS011;5727;42.600;23.028;2023-09-19T01:11:46;11.37;;;9.23;;
11344;SDS011;5727;42.600;23.028;2023-09-19T01:14:20;13.07;;;9.23;;
11344;SDS011;5727;42.600;23.028;2023-09-19T01:16:57;11.60;;;8.90;;
11344;SDS011;5727;42.600;23.028;2023-09-19T01:22:33;9.13;;;8.17;;
11344;SDS011;5727;42.600;23.028;2023-09-19T01:25:25;11.67;;;8.47;;
11344;SDS011;5727;42.600;23.028;2023-09-19T01:28:26;9.17;;;8.27;;
11344;SDS011;5727;42.600;23.028;2023-09-19T01:31:04;12.13;;;9.83;;
11344;SDS011;5727;42.600;23.028;2023-09-19T01:33:57;12.10;;;9.20;;
11344;SDS011;5727;42.600;23.028;2023-09-19T01:36:29;12.20;;;9.43;;
11344;SDS011;5727;42.600;23.028;2023-09-19T01:38:58;10.37;;;9.37;;
11344;SDS011;5727;42.600;23.028;2023-09-19T01:41:33;10.97;;;9.00;;
11344;SDS011;5727;42.600;23.028;2023-09-19T01:44:28;13.13;;;9.17;;
11344;SDS011;5727;42.600;23.028;2023-09-19T01:47:04;11.30;;;10.10;;
11344;SDS011;5727;42.600;23.028;2023-09-19T01:49:41;15.23;;;9.83;;
11344;SDS011;5727;42.600;23.028;2023-09-19T01:52:15;12.10;;;8.87;;
11344;SDS011;5727;42.600;23.028;2023-09-19T01:54:46;14.07;;;9.20;;
11344;SDS011;5727;42.600;23.028;2023-09-19T01:57:20;9.43;;;8.53;;
11344;SDS011;5727;42.600;23.028;2023-09-19T01:59:54;14.33;;;10.37;;
11344;SDS011;5727;42.600;23.028;2023-09-19T02:02:34;15.37;;;11.40;;
11344;SDS011;5727;42.600;23.028;2023-09-19T02:05:03;12.37;;;10.47;;
11344;SDS011;5727;42.600;23.028;2023-09-19T02:07:31;11.33;;;10.20;;
11344;SDS011;5727;42.600;23.028;2023-09-19T02:09:58;13.73;;;10.73;;
11344;SDS011;5727;42.600;23.028;2023-09-19T02:12:26;13.73;;;10.20;;
11344;SDS011;5727;42.600;23.028;2023-09-19T02:14:53;13.73;;;10.83;;
11344;SDS011;5727;42.600;23.028;2023-09-19T02:17:21;12.23;;;10.60;;
11344;SDS011;5727;42.600;23.028;2023-09-19T02:19:52;11.20;;;9.43;;
11344;SDS011;5727;42.600;23.028;2023-09-19T02:22:20;11.10;;;8.40;;
11344;SDS011;5727;42.600;23.028;2023-09-19T02:24:47;10.90;;;8.57;;
11344;SDS011;5727;42.600;23.028;2023-09-19T02:27:15;11.00;;;9.03;;
11344;SDS011;5727;42.600;23.028;2023-09-19T02:29:43;11.80;;;8.73;;
11344;SDS011;5727;42.600;23.028;2023-09-19T02:32:09;14.57;;;9.23;;
11344;SDS011;5727;42.600;23.028;2023-09-19T02:34:36;15.87;;;10.13;;
11344;SDS011;5727;42.600;23.028;2023-09-19T02:37:05;11.27;;;8.93;;
11344;SDS011;5727;42.600;23.028;2023-09-19T02:39:33;11.90;;;9.63;;
11344;SDS011;5727;42.600;23.028;2023-09-19T02:42:01;13.90;;;10.47;;
11344;SDS011;5727;42.600;23.028;2023-09-19T02:44:29;16.63;;;10.53;;
11344;SDS011;5727;42.600;23.028;2023-09-19T02:46:56;15.40;;;11.40;;
11344;SDS011;5727;42.600;23.028;2023-09-19T02:49:23;12.93;;;11.17;;
11344;SDS011;5727;42.600;23.028;2023-09-19T02:51:50;20.57;;;11.37;;
11344;SDS011;5727;42.600;23.028;2023-09-19T02:54:18;14.70;;;10.27;;
11344;SDS011;5727;42.600;23.028;2023-09-19T02:56:46;18.00;;;10.93;;
11344;SDS011;5727;42.600;23.028;2023-09-19T02:59:13;21.80;;;10.90;;
11344;SDS011;5727;42.600;23.028;2023-09-19T03:01:42;17.80;;;11.07;;
11344;SDS011;5727;42.600;23.028;2023-09-19T03:04:11;17.00;;;11.60;;
11344;SDS011;5727;42.600;23.028;2023-09-19T03:06:38;18.30;;;11.87;;
11344;SDS011;5727;42.600;23.028;2023-09-19T03:09:06;16.73;;;12.13;;
11344;SDS011;5727;42.600;23.028;2023-09-19T03:11:40;13.30;;;10.33;;
11344;SDS011;5727;42.600;23.028;2023-09-19T03:14:07;16.73;;;10.60;;
11344;SDS011;5727;42.600;23.028;2023-09-19T03:16:35;21.70;;;12.17;;
11344;SDS011;5727;42.600;23.028;2023-09-19T03:19:02;17.87;;;11.57;;
11344;SDS011;5727;42.600;23.028;2023-09-19T03:21:30;15.57;;;10.97;;
11344;SDS011;5727;42.600;23.028;2023-09-19T03:23:57;16.80;;;11.63;;
11344;SDS011;5727;42.600;23.028;2023-09-19T03:26:24;14.30;;;10.80;;
11344;SDS011;5727;42.600;23.028;2023-09-19T03:28:52;21.47;;;12.00;;
11344;SDS011;5727;42.600;23.028;2023-09-19T03:31:20;17.57;;;12.10;;
11344;SDS011;5727;42.600;23.028;2023-09-19T03:33:46;24.03;;;11.87;;
11344;SDS011;5727;42.600;23.028;2023-09-19T03:36:13;14.23;;;10.83;;
11344;SDS011;5727;42.600;23.028;2023-09-19T03:38:40;15.27;;;11.37;;
11344;SDS011;5727;42.600;23.028;2023-09-19T03:41:07;18.60;;;13.00;;
11344;SDS011;5727;42.600;23.028;2023-09-19T03:43:34;14.47;;;11.70;;
11344;SDS011;5727;42.600;23.028;2023-09-19T03:46:02;19.03;;;11.43;;
11344;SDS011;5727;42.600;23.028;2023-09-19T03:48:30;18.20;;;11.97;;
11344;SDS011;5727;42.600;23.028;2023-09-19T03:50:57;19.13;;;11.70;;
11344;SDS011;5727;42.600;23.028;2023-09-19T03:53:24;15.27;;;11.53;;
11344;SDS011;5727;42.600;23.028;2023-09-19T03:55:51;15.57;;;10.10;;
11344;SDS011;5727;42.600;23.028;2023-09-19T03:58:17;14.53;;;10.80;;
11344;SDS011;5727;42.600;23.028;2023-09-19T04:00:45;15.77;;;10.77;;
11344;SDS011;5727;42.600;23.028;2023-09-19T04:03:14;15.13;;;11.03;;
11344;SDS011;5727;42.600;23.028;2023-09-19T04:05:45;13.57;;;10.50;;
11344;SDS011;5727;42.600;23.028;2023-09-19T04:08:13;14.37;;;9.90;;
11344;SDS011;5727;42.600;23.028;2023-09-19T04:10:41;12.33;;;10.63;;
11344;SDS011;5727;42.600;23.028;2023-09-19T04:13:08;14.03;;;10.20;;
11344;SDS011;5727;42.600;23.028;2023-09-19T04:15:35;12.50;;;10.23;;
11344;SDS011;5727;42.600;23.028;2023-09-19T04:18:03;17.77;;;11.63;;
11344;SDS011;5727;42.600;23.028;2023-09-19T04:20:32;15.23;;;11.83;;
11344;SDS011;5727;42.600;23.028;2023-09-19T04:22:59;17.00;;;12.07;;
11344;SDS011;5727;42.600;23.028;2023-09-19T04:25:26;18.93;;;13.07;;
11344;SDS011;5727;42.600;23.028;2023-09-19T04:27:53;17.03;;;11.80;;
11344;SDS011;5727;42.600;23.028;2023-09-19T04:30:20;20.33;;;12.20;;
11344;SDS011;5727;42.600;23.028;2023-09-19T04:32:47;20.83;;;11.97;;
11344;SDS011;5727;42.600;23.028;2023-09-19T04:35:16;14.63;;;11.67;;
11344;SDS011;5727;42.600;23.028;2023-09-19T04:37:44;16.33;;;12.10;;
11344;SDS011;5727;42.600;23.028;2023-09-19T04:40:11;14.43;;;11.60;;
11344;SDS011;5727;42.600;23.028;2023-09-19T04:42:42;19.90;;;12.97;;
11344;SDS011;5727;42.600;23.028;2023-09-19T04:45:09;15.00;;;11.60;;
11344;SDS011;5727;42.600;23.028;2023-09-19T04:47:36;15.13;;;11.77;;
11344;SDS011;5727;42.600;23.028;2023-09-19T04:50:05;17.87;;;12.00;;
11344;SDS011;5727;42.600;23.028;2023-09-19T04:52:37;21.27;;;12.10;;
11344;SDS011;5727;42.600;23.028;2023-09-19T04:55:08;20.73;;;12.67;;
11344;SDS011;5727;42.600;23.028;2023-09-19T04:57:35;28.13;;;12.93;;
11344;SDS011;5727;42.600;23.028;2023-09-19T05:00:04;28.63;;;14.20;;
11344;SDS011;5727;42.600;23.028;2023-09-19T05:02:37;29.83;;;12.33;;
11344;SDS011;5727;42.600;23.028;2023-09-19T05:05:05;28.60;;;12.87;;
11344;SDS011;5727;42.600;23.028;2023-09-19T05:07:33;32.50;;;13.53;;
11344;SDS011;5727;42.600;23.028;2023-09-19T05:10:00;26.80;;;12.60;;
11344;SDS011;5727;42.600;23.028;2023-09-19T05:12:32;32.40;;;13.00;;
11344;SDS011;5727;42.600;23.028;2023-09-19T05:14:59;32.47;;;12.40;;
11344;SDS011;5727;42.600;23.028;2023-09-19T05:17:26;25.03;;;13.23;;
11344;SDS011;5727;42.600;23.028;2023-09-19T05:19:53;28.47;;;13.73;;
11344;SDS011;5727;42.600;23.028;2023-09-19T05:22:20;33.17;;;12.97;;
11344;SDS011;5727;42.600;23.028;2023-09-19T05:24:47;35.23;;;13.73;;
11344;SDS011;5727;42.600;23.028;2023-09-19T05:27:14;33.17;;;13.97;;
11344;SDS011;5727;42.600;23.028;2023-09-19T05:29:43;38.23;;;14.43;;
11344;SDS011;5727;42.600;23.028;2023-09-19T05:32:10;32.07;;;14.00;;
11344;SDS011;5727;42.600;23.028;2023-09-19T05:34:37;35.87;;;13.20;;
11344;SDS011;5727;42.600;23.028;2023-09-19T05:37:05;42.67;;;14.30;;
11344;SDS011;5727;42.600;23.028;2023-09-19T05:39:33;41.03;;;13.40;;
11344;SDS011;5727;42.600;23.028;2023-09-19T05:42:00;31.07;;;12.80;;
11344;SDS011;5727;42.600;23.028;2023-09-19T05:44:27;24.63;;;12.33;;
11344;SDS011;5727;42.600;23.028;2023-09-19T05:46:55;20.77;;;10.60;;
11344;SDS011;5727;42.600;23.028;2023-09-19T05:49:23;15.50;;;9.73;;
11344;SDS011;5727;42.600;23.028;2023-09-19T05:51:50;15.07;;;8.67;;
11344;SDS011;5727;42.600;23.028;2023-09-19T05:54:20;13.40;;;9.80;;
11344;SDS011;5727;42.600;23.028;2023-09-19T05:56:47;16.07;;;9.93;;
11344;SDS011;5727;42.600;23.028;2023-09-19T05:59:18;11.03;;;7.80;;
11344;SDS011;5727;42.600;23.028;2023-09-19T06:01:45;11.77;;;8.27;;
11344;SDS011;5727;42.600;23.028;2023-09-19T06:04:13;10.33;;;7.97;;
11344;SDS011;5727;42.600;23.028;2023-09-19T06:06:40;11.00;;;8.07;;
11344;SDS011;5727;42.600;23.028;2023-09-19T06:09:07;11.13;;;8.00;;
11344;SDS011;5727;42.600;23.028;2023-09-19T06:11:34;12.50;;;8.90;;
11344;SDS011;5727;42.600;23.028;2023-09-19T06:14:01;14.37;;;9.10;;
11344;SDS011;5727;42.600;23.028;2023-09-19T06:16:28;17.50;;;10.00;;
11344;SDS011;5727;42.600;23.028;2023-09-19T06:18:57;13.13;;;9.67;;
11344;SDS011;5727;42.600;23.028;2023-09-19T06:21:26;14.13;;;10.07;;
11344;SDS011;5727;42.600;23.028;2023-09-19T06:23:53;12.03;;;9.37;;
11344;SDS011;5727;42.600;23.028;2023-09-19T06:26:20;12.63;;;10.20;;
11344;SDS011;5727;42.600;23.028;2023-09-19T06:28:47;17.23;;;10.30;;
11344;SDS011;5727;42.600;23.028;2023-09-19T06:31:14;17.93;;;11.13;;
11344;SDS011;5727;42.600;23.028;2023-09-19T06:33:41;13.43;;;9.83;;
11344;SDS011;5727;42.600;23.028;2023-09-19T06:36:08;11.43;;;9.07;;
11344;SDS011;5727;42.600;23.028;2023-09-19T06:38:36;11.50;;;8.70;;
11344;SDS011;5727;42.600;23.028;2023-09-19T06:41:04;13.97;;;8.63;;
11344;SDS011;5727;42.600;23.028;2023-09-19T06:43:32;16.47;;;9.60;;
11344;SDS011;5727;42.600;23.028;2023-09-19T06:45:59;13.23;;;8.73;;
11344;SDS011;5727;42.600;23.028;2023-09-19T06:48:26;15.50;;;9.50;;
11344;SDS011;5727;42.600;23.028;2023-09-19T06:50:54;13.07;;;8.97;;
11344;SDS011;5727;42.600;23.028;2023-09-19T06:53:21;15.07;;;9.47;;
11344;SDS011;5727;42.600;23.028;2023-09-19T06:55:50;14.40;;;9.30;;
11344;SDS011;5727;42.600;23.028;2023-09-19T06:58:17;15.97;;;8.93;;
11344;SDS011;5727;42.600;23.028;2023-09-19T07:00:45;12.90;;;8.53;;
11344;SDS011;5727;42.600;23.028;2023-09-19T07:03:13;12.53;;;9.27;;
11344;SDS011;5727;42.600;23.028;2023-09-19T07:05:41;10.67;;;8.83;;
11344;SDS011;5727;42.600;23.028;2023-09-19T07:08:09;11.97;;;8.70;;
11344;SDS011;5727;42.600;23.028;2023-09-19T07:10:37;12.63;;;8.80;;
11344;SDS011;5727;42.600;23.028;2023-09-19T07:13:07;15.00;;;9.13;;
11344;SDS011;5727;42.600;23.028;2023-09-19T07:15:36;16.33;;;8.97;;
11344;SDS011;5727;42.600;23.028;2023-09-19T07:18:04;14.23;;;9.60;;
11344;SDS011;5727;42.600;23.028;2023-09-19T07:20:32;16.07;;;8.83;;
11344;SDS011;5727;42.600;23.028;2023-09-19T07:22:59;14.37;;;8.90;;
11344;SDS011;5727;42.600;23.028;2023-09-19T07:25:26;13.80;;;8.37;;
11344;SDS011;5727;42.600;23.028;2023-09-19T07:27:54;23.93;;;9.87;;
11344;SDS011;5727;42.600;23.028;2023-09-19T07:30:26;18.90;;;9.17;;
11344;SDS011;5727;42.600;23.028;2023-09-19T07:32:53;9.73;;;8.63;;
11344;SDS011;5727;42.600;23.028;2023-09-19T07:35:20;17.13;;;9.13;;
11344;SDS011;5727;42.600;23.028;2023-09-19T07:37:47;14.53;;;8.10;;
11344;SDS011;5727;42.600;23.028;2023-09-19T07:40:15;15.77;;;9.23;;
11344;SDS011;5727;42.600;23.028;2023-09-19T07:42:42;12.70;;;8.00;;
11344;SDS011;5727;42.600;23.028;2023-09-19T07:45:10;12.10;;;8.77;;
11344;SDS011;5727;42.600;23.028;2023-09-19T07:47:43;15.60;;;9.87;;
11344;SDS011;5727;42.600;23.028;2023-09-19T07:50:11;14.80;;;8.90;;
11344;SDS011;5727;42.600;23.028;2023-09-19T07:52:38;11.53;;;9.00;;
11344;SDS011;5727;42.600;23.028;2023-09-19T07:55:06;18.17;;;9.90;;
11344;SDS011;5727;42.600;23.028;2023-09-19T07:57:36;16.00;;;9.83;;
11344;SDS011;5727;42.600;23.028;2023-09-19T08:00:03;14.27;;;9.37;;
11344;SDS011;5727;42.600;23.028;2023-09-19T08:02:34;18.70;;;9.47;;
11344;SDS011;5727;42.600;23.028;2023-09-19T08:05:05;13.00;;;9.10;;
11344;SDS011;5727;42.600;23.028;2023-09-19T08:07:35;18.77;;;9.23;;
11344;SDS011;5727;42.600;23.028;2023-09-19T08:10:02;16.07;;;9.83;;
11344;SDS011;5727;42.600;23.028;2023-09-19T08:12:32;13.53;;;8.17;;
11344;SDS011;5727;42.600;23.028;2023-09-19T08:15:01;14.40;;;8.13;;
11344;SDS011;5727;42.600;23.028;2023-09-19T08:17:28;13.57;;;8.23;;
11344;SDS011;5727;42.600;23.028;2023-09-19T08:20:00;13.20;;;8.97;;
11344;SDS011;5727;42.600;23.028;2023-09-19T08:22:29;13.37;;;8.83;;
11344;SDS011;5727;42.600;23.028;2023-09-19T08:24:57;11.63;;;8.43;;
11344;SDS011;5727;42.600;23.028;2023-09-19T08:27:24;11.43;;;8.13;;
11344;SDS011;5727;42.600;23.028;2023-09-19T08:29:53;13.53;;;7.57;;
11344;SDS011;5727;42.600;23.028;2023-09-19T08:32:20;10.73;;;8.03;;
11344;SDS011;5727;42.600;23.028;2023-09-19T08:34:49;17.20;;;8.57;;
11344;SDS011;5727;42.600;23.028;2023-09-19T08:37:16;13.83;;;8.13;;
11344;SDS011;5727;42.600;23.028;2023-09-19T08:39:45;17.20;;;8.30;;
11344;SDS011;5727;42.600;23.028;2023-09-19T08:42:12;11.60;;;8.03;;
11344;SDS011;5727;42.600;23.028;2023-09-19T08:44:40;13.10;;;7.07;;
11344;SDS011;5727;42.600;23.028;2023-09-19T08:47:09;12.10;;;7.83;;
11344;SDS011;5727;42.600;23.028;2023-09-19T08:49:39;11.70;;;7.97;;
11344;SDS011;5727;42.600;23.028;2023-09-19T08:52:16;8.87;;;6.87;;
11344;SDS011;5727;42.600;23.028;2023-09-19T08:54:50;12.53;;;8.43;;
11344;SDS011;5727;42.600;23.028;2023-09-19T08:57:19;10.57;;;7.77;;
11344;SDS011;5727;42.600;23.028;2023-09-19T08:59:47;11.87;;;7.43;;
11344;SDS011;5727;42.600;23.028;2023-09-19T09:02:15;11.37;;;6.90;;
11344;SDS011;5727;42.600;23.028;2023-09-19T09:04:45;10.50;;;7.80;;
11344;SDS011;5727;42.600;23.028;2023-09-19T09:07:13;10.53;;;6.83;;
11344;SDS011;5727;42.600;23.028;2023-09-19T09:09:41;11.47;;;6.70;;
11344;SDS011;5727;42.600;23.028;2023-09-19T09:12:12;8.03;;;6.57;;
11344;SDS011;5727;42.600;23.028;2023-09-19T09:14:39;16.17;;;7.43;;
11344;SDS011;5727;42.600;23.028;2023-09-19T09:17:06;11.13;;;6.87;;
11344;SDS011;5727;42.600;23.028;2023-09-19T09:19:34;8.70;;;5.97;;
11344;SDS011;5727;42.600;23.028;2023-09-19T09:22:07;9.60;;;7.00;;
11344;SDS011;5727;42.600;23.028;2023-09-19T09:24:34;9.77;;;6.13;;
11344;SDS011;5727;42.600;23.028;2023-09-19T09:27:03;8.43;;;6.10;;
11344;SDS011;5727;42.600;23.028;2023-09-19T09:29:44;8.37;;;6.23;;
11344;SDS011;5727;42.600;23.028;2023-09-19T09:32:21;7.60;;;6.03;;
11344;SDS011;5727;42.600;23.028;2023-09-19T09:34:51;7.73;;;6.83;;
11344;SDS011;5727;42.600;23.028;2023-09-19T09:37:20;11.13;;;6.70;;
11344;SDS011;5727;42.600;23.028;2023-09-19T09:39:51;7.87;;;7.03;;
11344;SDS011;5727;42.600;23.028;2023-09-19T09:42:30;9.53;;;6.37;;
11344;SDS011;5727;42.600;23.028;2023-09-19T09:45:14;10.73;;;6.10;;
11344;SDS011;5727;42.600;23.028;2023-09-19T09:47:43;11.33;;;6.27;;
11344;SDS011;5727;42.600;23.028;2023-09-19T09:50:24;8.17;;;6.03;;
11344;SDS011;5727;42.600;23.028;2023-09-19T09:52:54;6.27;;;5.57;;
11344;SDS011;5727;42.600;23.028;2023-09-19T09:55:36;11.53;;;7.33;;
11344;SDS011;5727;42.600;23.028;2023-09-19T09:58:28;7.27;;;6.10;;
11344;SDS011;5727;42.600;23.028;2023-09-19T10:00:59;9.23;;;6.57;;
11344;SDS011;5727;42.600;23.028;2023-09-19T10:03:33;9.73;;;7.10;;
11344;SDS011;5727;42.600;23.028;2023-09-19T10:06:05;8.97;;;6.70;;
11344;SDS011;5727;42.600;23.028;2023-09-19T10:08:59;9.17;;;7.03;;
11344;SDS011;5727;42.600;23.028;2023-09-19T10:11:37;8.73;;;6.70;;
11344;SDS011;5727;42.600;23.028;2023-09-19T10:14:08;8.43;;;6.10;;
11344;SDS011;5727;42.600;23.028;2023-09-19T10:16:40;9.27;;;6.47;;
11344;SDS011;5727;42.600;23.028;2023-09-19T10:19:09;7.33;;;6.03;;
11344;SDS011;5727;42.600;23.028;2023-09-19T10:21:37;7.57;;;5.87;;
11344;SDS011;5727;42.600;23.028;2023-09-19T10:24:05;7.27;;;6.53;;
11344;SDS011;5727;42.600;23.028;2023-09-19T10:26:35;9.73;;;6.27;;
11344;SDS011;5727;42.600;23.028;2023-09-19T10:29:04;6.90;;;6.20;;
11344;SDS011;5727;42.600;23.028;2023-09-19T10:31:34;10.20;;;6.17;;
11344;SDS011;5727;42.600;23.028;2023-09-19T10:34:07;7.97;;;6.43;;
11344;SDS011;5727;42.600;23.028;2023-09-19T10:36:35;6.70;;;6.00;;
11344;SDS011;5727;42.600;23.028;2023-09-19T10:39:04;7.33;;;6.20;;
11344;SDS011;5727;42.600;23.028;2023-09-19T10:41:34;9.13;;;6.17;;
11344;SDS011;5727;42.600;23.028;2023-09-19T10:44:02;6.20;;;5.60;;
11344;SDS011;5727;42.600;23.028;2023-09-19T10:46:31;6.80;;;6.03;;
11344;SDS011;5727;42.600;23.028;2023-09-19T10:48:59;9.07;;;6.60;;
11344;SDS011;5727;42.600;23.028;2023-09-19T10:51:30;10.97;;;6.27;;
11344;SDS011;5727;42.600;23.028;2023-09-19T10:54:05;9.60;;;6.27;;
11344;SDS011;5727;42.600;23.028;2023-09-19T10:56:37;9.60;;;6.67;;
11344;SDS011;5727;42.600;23.028;2023-09-19T10:59:07;7.43;;;6.03;;
11344;SDS011;5727;42.600;23.028;2023-09-19T11:01:44;9.33;;;6.30;;
11344;SDS011;5727;42.600;23.028;2023-09-19T11:04:23;6.83;;;5.67;;
11344;SDS011;5727;42.600;23.028;2023-09-19T11:07:04;9.47;;;5.80;;
11344;SDS011;5727;42.600;23.028;2023-09-19T11:09:45;7.00;;;6.07;;
11344;SDS011;5727;42.600;23.028;2023-09-19T11:27:09;7.90;;;6.13;;
11344;SDS011;5727;42.600;23.028;2023-09-19T11:29:42;8.10;;;6.10;;
11344;SDS011;5727;42.600;23.028;2023-09-19T11:32:10;6.57;;;5.97;;
11344;SDS011;5727;42.600;23.028;2023-09-19T11:34:40;7.40;;;5.87;;
11344;SDS011;5727;42.600;23.028;2023-09-19T11:40:37;9.10;;;6.63;;
11344;SDS011;5727;42.600;23.028;2023-09-19T11:43:27;8.27;;;6.47;;
11344;SDS011;5727;42.600;23.028;2023-09-19T11:46:03;7.37;;;6.47;;
11344;SDS011;5727;42.600;23.028;2023-09-19T11:48:34;7.97;;;6.33;;
11344;SDS011;5727;42.600;23.028;2023-09-19T11:51:13;7.67;;;5.57;;
11344;SDS011;5727;42.600;23.028;2023-09-19T11:53:45;7.80;;;6.33;;
11344;SDS011;5727;42.600;23.028;2023-09-19T11:56:15;11.68;;;6.32;;
11344;SDS011;5727;42.600;23.028;2023-09-19T11:58:43;9.33;;;5.90;;
11344;SDS011;5727;42.600;23.028;2023-09-19T12:01:12;9.05;;;5.90;;
11344;SDS011;5727;42.600;23.028;2023-09-19T12:03:45;9.20;;;6.10;;
11344;SDS011;5727;42.600;23.028;2023-09-19T12:06:15;7.82;;;5.60;;
11344;SDS011;5727;42.600;23.028;2023-09-19T12:08:43;6.85;;;5.80;;
11344;SDS011;5727;42.600;23.028;2023-09-19T12:11:12;11.65;;;5.68;;
11344;SDS011;5727;42.600;23.028;2023-09-19T12:13:43;7.88;;;5.63;;
11344;SDS011;5727;42.600;23.028;2023-09-19T12:16:12;7.32;;;5.90;;
11344;SDS011;5727;42.600;23.028;2023-09-19T12:18:43;6.72;;;5.78;;
11344;SDS011;5727;42.600;23.028;2023-09-19T12:21:24;7.95;;;5.75;;
11344;SDS011;5727;42.600;23.028;2023-09-19T12:24:03;8.68;;;6.07;;
11344;SDS011;5727;42.600;23.028;2023-09-19T12:26:40;5.65;;;5.13;;
11344;SDS011;5727;42.600;23.028;2023-09-19T12:29:15;5.22;;;4.72;;
11344;SDS011;5727;42.600;23.028;2023-09-19T12:31:53;8.32;;;5.97;;
11344;SDS011;5727;42.600;23.028;2023-09-19T12:34:24;7.43;;;6.00;;
11344;SDS011;5727;42.600;23.028;2023-09-19T12:37:12;9.85;;;5.68;;
11344;SDS011;5727;42.600;23.028;2023-09-19T12:39:46;9.35;;;6.10;;
11344;SDS011;5727;42.600;23.028;2023-09-19T12:42:17;6.00;;;5.28;;
11344;SDS011;5727;42.600;23.028;2023-09-19T12:44:46;9.27;;;5.25;;
11344;SDS011;5727;42.600;23.028;2023-09-19T12:47:17;8.40;;;5.50;;
11344;SDS011;5727;42.600;23.028;2023-09-19T12:52:40;7.28;;;5.28;;
11344;SDS011;5727;42.600;23.028;2023-09-19T12:55:18;6.95;;;5.03;;
11344;SDS011;5727;42.600;23.028;2023-09-19T12:57:56;8.48;;;5.40;;
11344;SDS011;5727;42.600;23.028;2023-09-19T13:00:35;8.65;;;5.30;;
11344;SDS011;5727;42.600;23.028;2023-09-19T13:03:12;7.13;;;5.88;;
11344;SDS011;5727;42.600;23.028;2023-09-19T13:05:50;7.40;;;5.13;;
11344;SDS011;5727;42.600;23.028;2023-09-19T13:08:22;7.43;;;5.40;;
11344;SDS011;5727;42.600;23.028;2023-09-19T13:11:03;9.52;;;5.82;;
11344;SDS011;5727;42.600;23.028;2023-09-19T13:13:39;6.53;;;5.20;;
11344;SDS011;5727;42.600;23.028;2023-09-19T13:16:09;6.53;;;5.68;;
11344;SDS011;5727;42.600;23.028;2023-09-19T13:18:46;8.50;;;5.28;;
11344;SDS011;5727;42.600;23.028;2023-09-19T13:21:27;5.75;;;5.20;;
11344;SDS011;5727;42.600;23.028;2023-09-19T13:23:55;7.45;;;5.00;;
11344;SDS011;5727;42.600;23.028;2023-09-19T13:26:24;5.82;;;4.43;;
11344;SDS011;5727;42.600;23.028;2023-09-19T13:28:55;8.27;;;4.82;;
11344;SDS011;5727;42.600;23.028;2023-09-19T13:31:21;7.88;;;5.43;;
11344;SDS011;5727;42.600;23.028;2023-09-19T13:33:49;7.82;;;5.65;;
11344;SDS011;5727;42.600;23.028;2023-09-19T13:36:17;6.90;;;5.45;;
11344;SDS011;5727;42.600;23.028;2023-09-19T13:38:44;9.18;;;5.28;;
11344;SDS011;5727;42.600;23.028;2023-09-19T13:41:14;7.95;;;5.28;;
11344;SDS011;5727;42.600;23.028;2023-09-19T13:43:41;8.23;;;5.70;;
11344;SDS011;5727;42.600;23.028;2023-09-19T13:46:15;7.38;;;5.55;;
11344;SDS011;5727;42.600;23.028;2023-09-19T13:48:43;9.98;;;5.60;;
11344;SDS011;5727;42.600;23.028;2023-09-19T13:51:10;7.22;;;5.50;;
11344;SDS011;5727;42.600;23.028;2023-09-19T13:53:38;8.00;;;5.45;;
11344;SDS011;5727;42.600;23.028;2023-09-19T13:56:05;8.57;;;5.63;;
11344;SDS011;5727;42.600;23.028;2023-09-19T13:58:32;8.60;;;5.07;;
11344;SDS011;5727;42.600;23.028;2023-09-19T14:00:59;6.47;;;5.18;;
11344;SDS011;5727;42.600;23.028;2023-09-19T14:03:28;9.27;;;5.63;;
11344;SDS011;5727;42.600;23.028;2023-09-19T14:05:55;7.22;;;5.32;;
11344;SDS011;5727;42.600;23.028;2023-09-19T14:08:22;6.65;;;4.97;;
11344;SDS011;5727;42.600;23.028;2023-09-19T14:10:50;5.80;;;5.00;;
11344;SDS011;5727;42.600;23.028;2023-09-19T14:13:17;8.20;;;5.03;;
11344;SDS011;5727;42.600;23.028;2023-09-19T14:15:45;6.05;;;4.80;;
11344;SDS011;5727;42.600;23.028;2023-09-19T14:18:12;7.72;;;5.57;;
11344;SDS011;5727;42.600;23.028;2023-09-19T14:20:41;7.93;;;5.03;;
11344;SDS011;5727;42.600;23.028;2023-09-19T14:23:07;8.77;;;5.63;;
11344;SDS011;5727;42.600;23.028;2023-09-19T14:25:35;9.38;;;5.60;;
11344;SDS011;5727;42.600;23.028;2023-09-19T14:28:03;6.78;;;5.55;;
11344;SDS011;5727;42.600;23.028;2023-09-19T14:30:33;6.38;;;5.18;;
11344;SDS011;5727;42.600;23.028;2023-09-19T14:33:00;11.13;;;6.07;;
11344;SDS011;5727;42.600;23.028;2023-09-19T14:35:27;6.82;;;5.43;;
11344;SDS011;5727;42.600;23.028;2023-09-19T14:37:55;7.97;;;5.53;;
11344;SDS011;5727;42.600;23.028;2023-09-19T14:40:22;9.60;;;5.30;;
11344;SDS011;5727;42.600;23.028;2023-09-19T14:42:50;7.05;;;5.30;;
11344;SDS011;5727;42.600;23.028;2023-09-19T14:45:18;6.20;;;5.60;;
11344;SDS011;5727;42.600;23.028;2023-09-19T14:47:45;9.27;;;5.93;;
11344;SDS011;5727;42.600;23.028;2023-09-19T14:50:13;5.93;;;5.28;;
11344;SDS011;5727;42.600;23.028;2023-09-19T14:52:40;7.43;;;5.97;;
11344;SDS011;5727;42.600;23.028;2023-09-19T14:55:09;7.32;;;5.75;;
11344;SDS011;5727;42.600;23.028;2023-09-19T14:57:40;8.57;;;5.65;;
11344;SDS011;5727;42.600;23.028;2023-09-19T15:00:10;8.50;;;5.70;;
11344;SDS011;5727;42.600;23.028;2023-09-19T15:02:38;9.60;;;5.85;;
11344;SDS011;5727;42.600;23.028;2023-09-19T15:05:06;8.07;;;5.80;;
11344;SDS011;5727;42.600;23.028;2023-09-19T15:07:34;11.27;;;5.30;;
11344;SDS011;5727;42.600;23.028;2023-09-19T15:10:03;15.82;;;5.70;;
11344;SDS011;5727;42.600;23.028;2023-09-19T15:12:33;9.43;;;4.70;;
11344;SDS011;5727;42.600;23.028;2023-09-19T15:15:01;6.13;;;4.93;;